createdAt,value
2018-04-26T03:22:10.202Z,0.00
2018-04-26T03:23:10.205Z,0.00
2018-04-26T03:24:10.192Z,0.00
2018-04-26T03:25:10.183Z,0.00
2018-04-26T03:26:10.166Z,0.00
2018-04-26T03:27:10.160Z,0.00
2018-04-26T03:28:10.155Z,0.00
2018-04-26T03:29:10.146Z,0.00
2018-04-26T03:30:10.144Z,0.00
2018-04-26T03:31:10.171Z,0.00
2018-04-26T03:32:10.151Z,0.00
2018-04-26T03:33:10.149Z,0.00
2018-04-26T03:34:10.132Z,0.00
2018-04-26T03:35:18.885Z,0.00
2018-04-26T03:37:03.572Z,0.00
2018-04-26T03:38:03.543Z,0.00
2018-04-26T03:39:56.978Z,0.00
2018-04-26T03:40:56.934Z,0.00
2018-04-26T03:41:56.936Z,0.00
2018-04-26T03:42:56.933Z,0.00
2018-04-26T03:43:56.951Z,4.00
2018-04-26T03:44:56.926Z,0.00
2018-04-26T03:45:56.932Z,0.00
2018-04-26T03:46:56.941Z,4.00
2018-04-26T03:47:56.932Z,4.00
2018-04-26T03:48:56.943Z,4.00
2018-04-26T03:49:56.941Z,4.00
2018-04-26T03:50:56.919Z,4.00
2018-04-26T03:51:56.915Z,4.00
2018-04-26T03:52:56.912Z,8.00
2018-04-26T03:53:56.904Z,8.00
2018-04-26T03:54:56.910Z,8.00
2018-04-26T03:55:56.905Z,12.00
2018-04-26T03:56:56.923Z,12.00
2018-04-26T03:57:56.900Z,16.00
2018-04-26T04:00:17.952Z,24.00
2018-04-26T04:01:17.952Z,24.00
2018-04-26T04:02:17.939Z,24.00
2018-04-26T04:03:17.930Z,28.00
2018-04-26T04:04:17.938Z,28.00
2018-04-26T04:05:18.020Z,28.00
2018-04-26T04:06:17.927Z,28.00
2018-04-26T04:07:17.929Z,28.00
2018-04-26T04:08:17.929Z,32.00
2018-04-26T04:09:17.935Z,32.00
2018-04-26T04:10:17.921Z,32.00
2018-04-26T04:11:17.919Z,32.00
2018-04-26T04:12:17.919Z,36.00
2018-04-26T04:13:17.919Z,40.00
2018-04-26T04:14:17.907Z,40.00
2018-04-26T04:15:17.904Z,44.00
2018-04-26T04:16:17.915Z,52.00
2018-04-26T04:17:17.929Z,64.00
2018-04-26T04:18:17.914Z,72.00
2018-04-26T04:19:17.908Z,88.00
2018-04-26T04:20:17.906Z,100.00
2018-04-26T04:21:17.921Z,108.00
2018-04-26T04:22:17.892Z,120.00
2018-04-26T04:23:17.889Z,140.00
2018-04-26T04:24:17.907Z,160.00
2018-04-26T04:25:17.895Z,188.00
2018-04-26T04:26:17.886Z,216.00
2018-04-26T04:27:17.898Z,240.00
2018-04-26T04:28:17.889Z,252.00
2018-04-26T04:29:17.894Z,260.00
2018-04-26T04:30:17.905Z,260.00
2018-04-26T04:31:17.883Z,252.00
2018-04-26T04:32:17.877Z,252.00
2018-04-26T04:33:17.912Z,252.00
2018-04-26T04:34:17.869Z,280.00
2018-04-26T04:35:17.949Z,344.00
2018-04-26T04:36:17.866Z,424.00
2018-04-26T04:37:17.861Z,548.00
2018-04-26T04:38:17.865Z,680.00
2018-04-26T04:39:17.865Z,820.00
2018-04-26T04:40:17.886Z,1076.00
2018-04-26T04:41:17.860Z,1220.00
2018-04-26T04:42:17.888Z,1348.00
2018-04-26T04:43:17.847Z,1508.00
2018-04-26T04:44:17.846Z,1684.00
2018-04-26T04:45:17.958Z,1936.00
2018-04-26T04:46:17.842Z,3144.00
2018-04-26T04:47:17.841Z,6404.00
2018-04-26T04:48:17.849Z,9300.00
2018-04-26T04:49:17.842Z,2908.00
2018-04-26T04:50:17.853Z,4132.00
2018-04-26T04:51:17.849Z,15584.00
2018-04-26T04:52:17.849Z,16416.00
2018-04-26T04:53:17.846Z,18400.00
2018-04-26T04:54:17.851Z,18688.00
2018-04-26T04:55:17.848Z,19680.00
2018-04-26T04:56:17.831Z,19488.00
2018-04-26T04:57:17.829Z,20000.00
2018-04-26T04:58:17.839Z,22272.00
2018-04-26T04:59:17.840Z,25568.00
2018-04-26T05:00:17.835Z,27232.00
2018-04-26T05:01:17.850Z,28096.00
2018-04-26T05:02:17.870Z,30944.00
2018-04-26T05:03:17.850Z,33056.00
2018-04-26T05:04:17.851Z,33472.00
2018-04-26T05:05:17.860Z,33152.00
2018-04-26T05:06:26.500Z,33920.00
2018-04-26T05:08:11.348Z,15776.00
2018-04-26T05:09:11.424Z,7560.00
2018-04-26T05:10:11.305Z,6784.00
2018-04-26T05:11:11.344Z,7116.00
2018-04-26T05:12:11.281Z,8784.00
2018-04-26T05:13:11.361Z,19136.00
2018-04-26T05:14:11.293Z,34656.00
2018-04-26T05:15:11.332Z,41696.00
2018-04-26T05:16:11.476Z,37472.00
2018-04-26T05:17:11.523Z,19072.00
2018-04-26T05:18:11.325Z,9272.00
2018-04-26T05:19:11.339Z,35072.00
2018-04-26T05:20:11.406Z,41568.00
2018-04-26T05:21:11.343Z,49344.00
2018-04-26T05:22:11.427Z,49024.00
2018-04-26T05:23:11.375Z,47168.00
2018-04-26T05:24:11.416Z,43872.00
2018-04-26T05:25:11.376Z,47520.00
2018-04-26T05:26:11.424Z,46784.00
2018-04-26T05:27:11.415Z,49696.00
2018-04-26T05:28:11.444Z,52544.00
2018-04-26T05:29:11.441Z,52192.00
2018-04-26T05:30:11.456Z,59008.00
2018-04-26T05:31:11.480Z,60160.00
2018-04-26T05:32:11.452Z,59264.00
2018-04-26T05:33:11.488Z,46240.00
2018-04-26T05:34:11.496Z,49504.00
2018-04-26T05:35:11.497Z,60256.00
2018-04-26T05:36:11.500Z,50048.00
2018-04-26T05:37:11.502Z,10568.00
2018-04-26T05:38:11.509Z,5948.00
2018-04-26T05:39:11.527Z,2756.00
2018-04-26T05:40:11.554Z,1892.00
2018-04-26T05:41:11.532Z,1524.00
2018-04-26T05:42:11.563Z,1340.00
2018-04-26T05:43:11.571Z,1196.00
2018-04-26T05:44:11.575Z,1196.00
2018-04-26T05:45:11.573Z,1180.00
2018-04-26T05:46:11.931Z,1068.00
2018-04-26T05:47:11.611Z,972.00
2018-04-26T05:48:11.593Z,916.00
2018-04-26T05:49:11.628Z,868.00
2018-04-26T05:50:11.617Z,800.00
2018-04-26T05:51:11.636Z,740.00
2018-04-26T05:52:11.632Z,680.00
2018-04-26T05:53:11.635Z,624.00
2018-04-26T05:54:12.251Z,592.00
2018-04-26T05:55:11.646Z,560.00
2018-04-26T05:56:11.642Z,528.00
2018-04-26T05:57:11.642Z,508.00
2018-04-26T05:58:11.659Z,492.00
2018-04-26T05:59:11.695Z,480.00
2018-04-26T06:00:11.669Z,468.00
2018-04-26T06:01:11.656Z,444.00
2018-04-26T06:02:11.645Z,420.00
2018-04-26T06:03:11.644Z,400.00
2018-04-26T06:04:11.684Z,384.00
2018-04-26T06:05:11.645Z,372.00
2018-04-26T06:06:11.649Z,368.00
2018-04-26T06:07:11.651Z,356.00
2018-04-26T06:08:11.669Z,352.00
2018-04-26T06:09:11.660Z,352.00
2018-04-26T06:10:11.658Z,352.00
2018-04-26T06:11:11.675Z,360.00
2018-04-26T06:12:11.656Z,368.00
2018-04-26T06:13:11.666Z,384.00
2018-04-26T06:14:11.689Z,404.00
2018-04-26T06:15:11.664Z,428.00
2018-04-26T06:16:11.670Z,444.00
2018-04-26T06:17:11.745Z,468.00
2018-04-26T06:18:11.684Z,484.00
2018-04-26T06:19:11.654Z,508.00
2018-04-26T06:20:11.649Z,528.00
2018-04-26T06:21:11.647Z,544.00
2018-04-26T06:22:11.654Z,568.00
2018-04-26T06:23:11.672Z,588.00
2018-04-26T06:24:11.674Z,600.00
2018-04-26T06:25:11.706Z,616.00
2018-04-26T06:26:11.652Z,640.00
2018-04-26T06:27:11.642Z,664.00
2018-04-26T06:28:11.650Z,680.00
2018-04-26T06:29:11.649Z,700.00
2018-04-26T06:30:11.651Z,704.00
2018-04-26T06:31:11.746Z,728.00
2018-04-26T06:32:11.661Z,764.00
2018-04-26T06:33:20.323Z,796.00
2018-04-26T06:35:05.195Z,820.00
2018-04-26T06:36:05.039Z,808.00
2018-04-26T06:37:05.041Z,808.00
2018-04-26T06:38:05.061Z,868.00
2018-04-26T06:39:05.063Z,928.00
2018-04-26T06:40:05.017Z,956.00
2018-04-26T06:41:05.025Z,972.00
2018-04-26T06:42:05.021Z,956.00
2018-04-26T06:43:05.023Z,932.00
2018-04-26T06:44:05.012Z,916.00
2018-04-26T06:45:14.742Z,908.00
2018-04-26T06:46:58.470Z,852.00
2018-04-26T06:47:58.424Z,828.00
2018-04-26T06:48:58.421Z,824.00
2018-04-26T06:49:58.438Z,816.00
2018-04-26T06:50:58.445Z,800.00
2018-04-26T06:53:20.513Z,832.00
2018-04-26T06:54:20.535Z,872.00
2018-04-26T06:55:20.484Z,900.00
2018-04-26T06:56:20.482Z,908.00
2018-04-26T06:57:20.485Z,900.00
2018-04-26T06:58:20.481Z,916.00
2018-04-26T06:59:20.477Z,920.00
2018-04-26T07:00:20.538Z,928.00
2018-04-26T07:01:20.486Z,928.00
2018-04-26T07:02:20.486Z,916.00
2018-04-26T07:03:20.496Z,892.00
2018-04-26T07:04:20.467Z,848.00
2018-04-26T07:05:20.471Z,804.00
2018-04-26T07:06:20.467Z,784.00
2018-04-26T07:07:20.461Z,788.00
2018-04-26T07:08:20.463Z,812.00
2018-04-26T07:09:20.492Z,832.00
2018-04-26T07:10:21.994Z,844.00
2018-04-26T07:11:20.457Z,844.00
2018-04-26T07:12:20.457Z,848.00
2018-04-26T07:13:20.453Z,868.00
2018-04-26T07:14:20.469Z,928.00
2018-04-26T07:15:20.466Z,980.00
2018-04-26T07:16:20.463Z,960.00
2018-04-26T07:17:20.448Z,916.00
2018-04-26T07:18:20.450Z,876.00
2018-04-26T07:19:20.447Z,884.00
2018-04-26T07:20:29.109Z,912.00
2018-04-26T07:22:21.550Z,924.00
2018-04-26T07:23:22.519Z,968.00
2018-04-26T07:25:07.271Z,1248.00
2018-04-26T07:26:07.271Z,1368.00
2018-04-26T07:27:07.234Z,1452.00
2018-04-26T07:28:07.255Z,1612.00
2018-04-26T07:29:07.251Z,1832.00
2018-04-26T07:30:07.251Z,1928.00
2018-04-26T07:31:07.254Z,2032.00
2018-04-26T07:32:07.226Z,2216.00
2018-04-26T07:33:07.224Z,2400.00
2018-04-26T07:34:07.228Z,2696.00
2018-04-26T07:35:07.225Z,2888.00
2018-04-26T07:36:07.244Z,2972.00
2018-04-26T07:37:07.219Z,3096.00
2018-04-26T07:38:07.233Z,3152.00
2018-04-26T07:39:07.219Z,3164.00
2018-04-26T07:40:07.221Z,3072.00
2018-04-26T07:41:07.218Z,3100.00
2018-04-26T07:42:07.236Z,3080.00
2018-04-26T07:43:07.222Z,2968.00
2018-04-26T07:44:07.212Z,2800.00
2018-04-26T07:45:07.219Z,2684.00
2018-04-26T07:46:07.209Z,2600.00
2018-04-26T07:47:07.213Z,2664.00
2018-04-26T07:48:07.211Z,2756.00
2018-04-26T07:49:07.239Z,2804.00
2018-04-26T07:50:07.211Z,2820.00
2018-04-26T07:51:07.217Z,2748.00
2018-04-26T07:52:07.216Z,2772.00
2018-04-26T07:53:08.849Z,2900.00
2018-04-26T07:54:07.241Z,3116.00
2018-04-26T07:55:07.204Z,3292.00
2018-04-26T07:56:07.228Z,3320.00
2018-04-26T07:57:07.249Z,3236.00
2018-04-26T07:58:07.209Z,3304.00
2018-04-26T07:59:07.193Z,3088.00
2018-04-26T08:00:07.200Z,2952.00
2018-04-26T08:01:07.194Z,2900.00
2018-04-26T08:02:07.195Z,2860.00
2018-04-26T08:03:07.198Z,2888.00
2018-04-26T08:04:07.200Z,2740.00
2018-04-26T08:05:15.853Z,2728.00
2018-04-26T08:07:00.608Z,2732.00
2018-04-26T08:08:00.589Z,2628.00
2018-04-26T08:09:00.594Z,2676.00
2018-04-26T08:10:00.586Z,2800.00
2018-04-26T08:11:00.591Z,2912.00
2018-04-26T08:12:00.592Z,2904.00
2018-04-26T08:13:00.592Z,2812.00
2018-04-26T08:14:00.602Z,2652.00
2018-04-26T08:15:00.612Z,2708.00
2018-04-26T08:16:00.596Z,2820.00
2018-04-26T08:17:00.586Z,2636.00
2018-04-26T08:18:00.588Z,2504.00
2018-04-26T08:19:00.590Z,2600.00
2018-04-26T08:20:00.585Z,2832.00
2018-04-26T08:21:00.588Z,2736.00
2018-04-26T08:22:00.583Z,2676.00
2018-04-26T08:23:00.593Z,2660.00
2018-04-26T08:24:00.593Z,2528.00
2018-04-26T08:25:00.655Z,2580.00
2018-04-26T08:26:00.587Z,2508.00
2018-04-26T08:27:00.585Z,2312.00
2018-04-26T08:28:00.580Z,2148.00
2018-04-26T08:29:00.579Z,2152.00
2018-04-26T08:30:00.579Z,2104.00
2018-04-26T08:31:00.616Z,1988.00
2018-04-26T08:32:00.629Z,1876.00
2018-04-26T08:33:00.581Z,1768.00
2018-04-26T08:34:00.580Z,1756.00
2018-04-26T08:35:00.575Z,1752.00
2018-04-26T08:36:00.579Z,1748.00
2018-04-26T08:37:00.589Z,1704.00
2018-04-26T08:38:00.585Z,1588.00
2018-04-26T08:39:00.600Z,1592.00
2018-04-26T08:40:00.580Z,1416.00
2018-04-26T08:41:00.601Z,1548.00
2018-04-26T08:42:00.571Z,1576.00
2018-04-26T08:43:00.600Z,1716.00
2018-04-26T08:44:00.600Z,1732.00
2018-04-26T08:45:00.570Z,1836.00
2018-04-26T08:46:00.571Z,1916.00
2018-04-26T08:47:00.563Z,2152.00
2018-04-26T08:48:00.564Z,2056.00
2018-04-26T08:49:00.562Z,2352.00
2018-04-26T08:50:00.563Z,2488.00
2018-04-26T08:51:00.560Z,2324.00
2018-04-26T08:52:00.560Z,2180.00
2018-04-26T08:53:00.560Z,2120.00
2018-04-26T08:54:00.564Z,2120.00
2018-04-26T08:55:00.591Z,2112.00
2018-04-26T08:56:00.564Z,2200.00
2018-04-26T08:57:00.559Z,2380.00
2018-04-26T08:58:00.600Z,2504.00
2018-04-26T08:59:00.552Z,2524.00
2018-04-26T09:00:00.547Z,2520.00
2018-04-26T09:01:00.546Z,2528.00
2018-04-26T09:02:00.551Z,2268.00
2018-04-26T09:03:00.561Z,2420.00
2018-04-26T09:04:00.566Z,2456.00
2018-04-26T09:05:00.543Z,2568.00
2018-04-26T09:06:00.553Z,2612.00
2018-04-26T09:07:00.558Z,2700.00
2018-04-26T09:08:00.549Z,2668.00
2018-04-26T09:09:00.552Z,2808.00
2018-04-26T09:10:00.535Z,2748.00
2018-04-26T09:11:00.588Z,2752.00
2018-04-26T09:12:00.554Z,2764.00
2018-04-26T09:13:00.528Z,2784.00
2018-04-26T09:14:00.535Z,2800.00
2018-04-26T09:15:00.538Z,2756.00
2018-04-26T09:16:00.665Z,2736.00
2018-04-26T09:17:00.526Z,2736.00
2018-04-26T09:18:00.524Z,2744.00
2018-04-26T09:19:00.551Z,2692.00
2018-04-26T09:20:00.530Z,2612.00
2018-04-26T09:21:00.551Z,2564.00
2018-04-26T09:22:00.565Z,2588.00
2018-04-26T09:23:00.521Z,2532.00
2018-04-26T09:24:00.536Z,2528.00
2018-04-26T09:25:00.520Z,2420.00
2018-04-26T09:26:00.520Z,2196.00
2018-04-26T09:27:00.569Z,2112.00
2018-04-26T09:28:00.522Z,2016.00
2018-04-26T09:29:00.552Z,1940.00
2018-04-26T09:30:00.543Z,1640.00
2018-04-26T09:31:00.520Z,1788.00
2018-04-26T09:32:00.515Z,1748.00
2018-04-26T09:33:00.540Z,1624.00
2018-04-26T09:34:00.527Z,1656.00
2018-04-26T09:35:00.542Z,1856.00
2018-04-26T09:36:00.523Z,1812.00
2018-04-26T09:37:00.519Z,1760.00
2018-04-26T09:38:00.551Z,1808.00
2018-04-26T09:39:00.511Z,1948.00
2018-04-26T09:40:00.515Z,2000.00
2018-04-26T09:41:00.514Z,1988.00
2018-04-26T09:42:00.519Z,1844.00
2018-04-26T09:43:00.512Z,2004.00
2018-04-26T09:44:00.522Z,2020.00
2018-04-26T09:45:00.525Z,2072.00
2018-04-26T09:46:00.518Z,2148.00
2018-04-26T09:47:00.513Z,2160.00
2018-04-26T09:48:00.582Z,2144.00
2018-04-26T09:49:00.509Z,2092.00
2018-04-26T09:50:00.550Z,2108.00
2018-04-26T09:51:00.511Z,2180.00
2018-04-26T09:52:00.538Z,2236.00
2018-04-26T09:53:00.513Z,2184.00
2018-04-26T09:54:00.509Z,2348.00
2018-04-26T09:55:00.505Z,2280.00
2018-04-26T09:56:09.172Z,2240.00
2018-04-26T09:57:53.928Z,2276.00
2018-04-26T09:58:53.893Z,2304.00
2018-04-26T09:59:53.897Z,2284.00
2018-04-26T10:00:53.897Z,2088.00
2018-04-26T10:01:53.917Z,2056.00
